Adix — GCGR — position and weather

sailwx.info

Track history (hours):
 
Tides and Currents Weather Stations Pressure Air Temp Water Temp Dewpoint Dewpoint Depression Visibility Wind Speed Wind Dir Waves Ship Positions

Adix

Last reported at 2017-Aug-28 12:08 UTC. Time now 2017-Sep-24 08:36 UTC.
Position N 41°47' W 069°52'.
Warning: this ship's position is 26 days out of date.

Length 64 m; draft 4.9 m.

Type: Sailing vessel. MMSI: 232398000.

Date/timePositionNaut miles runAvg speedWind from/ knotsBaromVisibWave heightAir tempDewpointWater temp
2017-Aug-28 12:08N 41°47' W 069°52'3 8.6
2017-Aug-28 11:48N 41°50' W 069°52'1 4.3
2017-Aug-28 11:30N 41°48' W 069°51'511.0
2017-Aug-28 11:00N 41°54' W 069°49'611.1
2017-Aug-28 10:30N 41°59' W 069°47'611.4
2017-Aug-28 10:00N 42°05' W 069°45'611.1
2017-Aug-28 09:29N 42°10' W 069°43'510.4
2017-Aug-28 09:00N 42°15' W 069°42'510.6
2017-Aug-28 08:30N 42°20' W 069°40'611.1
2017-Aug-28 08:00N 42°26' W 069°37'611.2
2017-Aug-28 07:28N 42°31' W 069°35'510.9
2017-Aug-28 07:00N 42°36' W 069°33'510.5
2017-Aug-28 06:30N 42°41' W 069°31'510.4
2017-Aug-28 06:00N 42°46' W 069°29'510.5
2017-Aug-28 05:30N 42°51' W 069°27'510.4
2017-Aug-28 05:00N 42°56' W 069°24'510.6
2017-Aug-28 04:29N 43°01' W 069°22'510.5
2017-Aug-28 04:00N 43°06' W 069°20'510.4
2017-Aug-28 03:30N 43°11' W 069°19'5 9.9
2017-Aug-28 03:00N 43°16' W 069°17'510.2
2017-Aug-28 02:30N 43°21' W 069°16'510.2
2017-Aug-28 02:00N 43°26' W 069°14'510.3
2017-Aug-28 01:30N 43°31' W 069°13'510.1
2017-Aug-28 01:00N 43°36' W 069°12'510.6
2017-Aug-28 00:30N 43°41' W 069°10'510.5
2017-Aug-28 00:00N 43°46' W 069°08'510.6
2017-Aug-27 23:30N 43°51' W 069°06'510.8
2017-Aug-27 23:00N 43°57' W 069°04'511.0
2017-Aug-27 22:30N 44°02' W 069°01'510.8
2017-Aug-27 22:00N 44°07' W 069°02'  
2017-Aug-25 17:52N 44°12' W 069°01'  
2017-Aug-22 21:42N 44°03' W 069°04'1 4.5
2017-Aug-22 21:26N 44°02' W 069°03'2 4.7
2017-Aug-22 20:59N 44°01' W 069°01'4 8.1
2017-Aug-22 20:28N 43°58' W 068°56'4 6.4
2017-Aug-22 19:53N 43°55' W 068°54'5 9.8
2017-Aug-22 19:20N 43°53' W 068°60'3 8.7
2017-Aug-22 18:58N 43°51' W 069°04'1511.4
2017-Aug-22 17:41N 43°46' W 069°23'210.8
2017-Aug-22 17:30N 43°46' W 069°26'  
Track history (hours):
 
Tides and Currents Weather Stations Pressure Air Temp Water Temp Dewpoint Dewpoint Depression Visibility Wind Speed Wind Dir Waves Ship Positions

Adix

Last reported at 2017-Aug-28 12:08 UTC. Time now 2017-Sep-24 08:36 UTC.
Position N 41°47' W 069°52'.
Warning: this ship's position is 26 days out of date.

Length 64 m; draft 4.9 m.

Type: Sailing vessel. MMSI: 232398000.

Date/timePositionNaut miles runAvg speedWind from/ knotsBaromVisibWave heightAir tempDewpointWater temp
2017-Aug-28 12:08N 41°47' W 069°52'3 8.6
2017-Aug-28 11:48N 41°50' W 069°52'1 4.3
2017-Aug-28 11:30N 41°48' W 069°51'511.0
2017-Aug-28 11:00N 41°54' W 069°49'611.1
2017-Aug-28 10:30N 41°59' W 069°47'611.4
2017-Aug-28 10:00N 42°05' W 069°45'611.1
2017-Aug-28 09:29N 42°10' W 069°43'510.4
2017-Aug-28 09:00N 42°15' W 069°42'510.6
2017-Aug-28 08:30N 42°20' W 069°40'611.1
2017-Aug-28 08:00N 42°26' W 069°37'611.2
2017-Aug-28 07:28N 42°31' W 069°35'510.9
2017-Aug-28 07:00N 42°36' W 069°33'510.5
2017-Aug-28 06:30N 42°41' W 069°31'510.4
2017-Aug-28 06:00N 42°46' W 069°29'510.5
2017-Aug-28 05:30N 42°51' W 069°27'510.4
2017-Aug-28 05:00N 42°56' W 069°24'510.6
2017-Aug-28 04:29N 43°01' W 069°22'510.5
2017-Aug-28 04:00N 43°06' W 069°20'510.4
2017-Aug-28 03:30N 43°11' W 069°19'5 9.9
2017-Aug-28 03:00N 43°16' W 069°17'510.2
2017-Aug-28 02:30N 43°21' W 069°16'510.2
2017-Aug-28 02:00N 43°26' W 069°14'510.3
2017-Aug-28 01:30N 43°31' W 069°13'510.1
2017-Aug-28 01:00N 43°36' W 069°12'510.6
2017-Aug-28 00:30N 43°41' W 069°10'510.5
2017-Aug-28 00:00N 43°46' W 069°08'510.6
2017-Aug-27 23:30N 43°51' W 069°06'510.8
2017-Aug-27 23:00N 43°57' W 069°04'511.0
2017-Aug-27 22:30N 44°02' W 069°01'510.8
2017-Aug-27 22:00N 44°07' W 069°02'  
2017-Aug-25 17:52N 44°12' W 069°01'  
2017-Aug-22 21:42N 44°03' W 069°04'1 4.5
2017-Aug-22 21:26N 44°02' W 069°03'2 4.7
2017-Aug-22 20:59N 44°01' W 069°01'4 8.1
2017-Aug-22 20:28N 43°58' W 068°56'4 6.4
2017-Aug-22 19:53N 43°55' W 068°54'5 9.8
2017-Aug-22 19:20N 43°53' W 068°60'3 8.7
2017-Aug-22 18:58N 43°51' W 069°04'1511.4
2017-Aug-22 17:41N 43°46' W 069°23'210.8
2017-Aug-22 17:30N 43°46' W 069°26'  

Dump ship's entire track history